Time;durP1;ratioP1;P1;durP2;ratioP2;P2;SDS_P1;SDS_P2;PMS_P1;PMS_P2;Temp;Humidity;BMP_temperature;BMP_pressure;BME280_temperature;BME280_humidity;BME280_pressure;Samples;Min_cycle;Max_cycle;Signal;HPM_P1;HPM_P2
2024/01/02 00:00:38;;;;;;;2.30;0.77;;;;;;;9.51;nan;98981.34;4975160;28;20722;-77
2024/01/02 00:03:03;;;;;;;2.00;0.60;;;;;;;9.49;nan;98975.34;4976776;28;20472;-77
2024/01/02 00:05:29;;;;;;;0.60;0.50;;;;;;;9.48;nan;98964.03;4976899;28;20185;-77
2024/01/02 00:07:54;;;;;;;1.50;0.70;;;;;;;9.48;nan;98963.19;4977608;28;20468;-78
2024/01/02 00:10:20;;;;;;;1.03;0.70;;;;;;;9.46;nan;98968.53;4976080;28;20221;-77
2024/01/02 00:12:45;;;;;;;1.20;0.70;;;;;;;9.48;nan;98950.94;4977292;28;20205;-77
2024/01/02 00:15:11;;;;;;;0.70;0.63;;;;;;;9.50;nan;98951.66;4978150;28;20263;-78
2024/01/02 00:17:36;;;;;;;1.13;0.83;;;;;;;9.51;nan;98953.34;4977350;28;20680;-77
2024/01/02 00:20:02;;;;;;;1.47;0.60;;;;;;;9.53;nan;98943.59;4974135;28;20213;-76
2024/01/02 00:22:28;;;;;;;1.37;0.70;;;;;;;9.52;nan;98935.81;4975406;28;20530;-77
2024/01/02 00:24:53;;;;;;;0.77;0.73;;;;;;;9.55;nan;98937.38;4976927;28;20969;-78
2024/01/02 00:27:19;;;;;;;1.40;0.80;;;;;;;9.58;nan;98931.91;4955712;28;20224;-78
2024/01/02 00:29:44;;;;;;;0.70;0.50;;;;;;;9.59;nan;98925.75;4972477;28;20225;-78
2024/01/02 00:32:10;;;;;;;0.70;0.70;;;;;;;9.60;nan;98924.78;4959620;28;20197;-78
2024/01/02 00:34:35;;;;;;;1.23;0.60;;;;;;;9.59;nan;98920.50;4975570;28;20232;-79
2024/01/02 00:37:00;;;;;;;1.10;0.60;;;;;;;9.60;nan;98911.69;4974394;28;20208;-77
2024/01/02 00:39:26;;;;;;;2.30;0.80;;;;;;;9.64;nan;98918.38;4954868;28;20504;-75
2024/01/02 00:41:51;;;;;;;1.53;0.70;;;;;;;9.64;nan;98902.63;4977148;28;20456;-78
2024/01/02 00:44:16;;;;;;;1.20;0.70;;;;;;;9.65;nan;98896.47;4976936;28;20697;-78
2024/01/02 00:46:42;;;;;;;0.70;0.60;;;;;;;9.68;nan;98891.00;4979194;28;20209;-79
2024/01/02 00:49:07;;;;;;;0.60;0.60;;;;;;;9.69;nan;98883.03;4976493;28;20231;-77
2024/01/02 00:51:35;;;;;;;0.60;0.50;;;;;;;9.70;nan;98878.63;4958492;28;20232;-78
2024/01/02 00:54:01;;;;;;;0.90;0.60;;;;;;;9.71;nan;98864.56;4968169;28;20205;-77
2024/01/02 00:56:26;;;;;;;0.60;0.50;;;;;;;9.71;nan;98859.31;4975487;28;20213;-76
2024/01/02 00:58:52;;;;;;;0.60;0.60;;;;;;;9.72;nan;98860.97;4976395;28;20705;-77
2024/01/02 01:01:18;;;;;;;0.70;0.70;;;;;;;9.72;nan;98859.22;4958899;28;20787;-78
2024/01/02 01:03:44;;;;;;;3.85;0.85;;;;;;;9.75;nan;98855.53;4975095;28;20694;-77
2024/01/02 01:06:09;;;;;;;0.87;0.70;;;;;;;9.77;nan;98858.84;4974350;28;20210;-76
2024/01/02 01:08:35;;;;;;;1.17;0.60;;;;;;;9.76;nan;98857.19;4943127;28;20256;-78
2024/01/02 01:11:00;;;;;;;2.80;0.70;;;;;;;9.77;nan;98853.59;4975635;28;20211;-78
2024/01/02 01:13:25;;;;;;;4.20;0.60;;;;;;;9.77;nan;98848.38;4979089;28;20217;-78
2024/01/02 01:15:51;;;;;;;1.37;0.60;;;;;;;9.78;nan;98842.19;4970798;28;20244;-77
2024/01/02 01:18:16;;;;;;;1.00;0.80;;;;;;;9.79;nan;98840.41;4974377;28;20198;-77
2024/01/02 01:20:42;;;;;;;1.37;0.60;;;;;;;9.78;nan;98830.88;4972566;28;20207;-78
2024/01/02 01:23:07;;;;;;;0.83;0.60;;;;;;;9.79;nan;98830.75;4976430;28;20441;-77
2024/01/02 01:25:33;;;;;;;3.23;0.70;;;;;;;9.80;nan;98831.56;4973634;28;20877;-76
2024/01/02 01:27:58;;;;;;;0.70;0.50;;;;;;;9.80;nan;98834.19;4977876;28;20201;-77
2024/01/02 01:30:24;;;;;;;1.67;0.60;;;;;;;9.80;nan;98832.41;4971813;28;20210;-78
2024/01/02 01:32:49;;;;;;;0.57;0.50;;;;;;;9.79;nan;98830.75;4956724;28;20965;-76
2024/01/02 01:35:15;;;;;;;0.60;0.50;;;;;;;9.79;nan;98815.00;4972306;28;20209;-77
2024/01/02 01:37:40;;;;;;;0.70;0.70;;;;;;;9.81;nan;98823.59;4954871;28;20440;-77
2024/01/02 01:40:06;;;;;;;0.70;0.50;;;;;;;9.83;nan;98811.22;4974702;28;20208;-77
2024/01/02 01:42:31;;;;;;;1.40;0.60;;;;;;;9.85;nan;98814.53;4973136;28;20263;-76
2024/01/02 01:44:57;;;;;;;1.57;0.90;;;;;;;9.84;nan;98815.50;4974936;28;20207;-78
2024/01/02 01:47:23;;;;;;;0.80;0.70;;;;;;;9.85;nan;98821.59;4956259;28;20587;-78
2024/01/02 01:52:17;;;;;;;2.90;0.57;;;;;;;9.88;nan;98814.34;4939409;28;20776;-82
2024/01/02 01:54:43;;;;;;;0.60;0.50;;;;;;;9.92;nan;98810.53;4935516;28;20201;-82
2024/01/02 01:57:09;;;;;;;0.70;0.60;;;;;;;9.94;nan;98810.44;4953514;28;20640;-81
2024/01/02 01:59:37;;;;;;;0.60;0.50;;;;;;;9.97;nan;98803.16;4975805;28;20617;-81
2024/01/02 02:02:03;;;;;;;1.13;0.50;;;;;;;10.00;nan;98804.72;4978030;28;20588;-81
2024/01/02 02:04:31;;;;;;;0.80;0.80;;;;;;;10.02;nan;98794.97;4983399;28;20265;-81
2024/01/02 02:06:57;;;;;;;0.65;0.50;;;;;;;10.03;nan;98799.25;4983266;28;20510;-81
2024/01/02 02:09:22;;;;;;;0.90;0.70;;;;;;;10.07;nan;98794.59;4980653;28;20441;-81
2024/01/02 02:11:48;;;;;;;1.43;0.80;;;;;;;10.09;nan;98795.31;4980720;28;20213;-80
2024/01/02 02:14:13;;;;;;;0.60;0.53;;;;;;;10.07;nan;98782.34;4982942;28;20588;-81
2024/01/02 02:16:42;;;;;;;0.70;0.53;;;;;;;10.08;nan;98776.13;4981879;28;20479;-81
2024/01/02 02:19:08;;;;;;;0.85;0.60;;;;;;;10.12;nan;98780.19;4975832;28;20256;-80
2024/01/02 02:21:35;;;;;;;0.60;0.50;;;;;;;10.13;nan;98770.53;4976026;28;20209;-82
2024/01/02 02:24:01;;;;;;;1.17;0.50;;;;;;;10.13;nan;98766.13;4974892;28;20217;-81
2024/01/02 02:26:26;;;;;;;1.23;0.60;;;;;;;10.12;nan;98759.19;4975153;28;20190;-81
2024/01/02 02:28:52;;;;;;;0.97;0.50;;;;;;;10.13;nan;98757.44;4975612;28;20290;-81
2024/01/02 02:31:18;;;;;;;0.60;0.50;;;;;;;10.10;nan;98747.13;4972815;28;20436;-80
2024/01/02 02:33:44;;;;;;;0.70;0.60;;;;;;;10.14;nan;98761.72;4976629;28;20372;-80
2024/01/02 02:36:09;;;;;;;0.60;0.50;;;;;;;10.13;nan;98744.31;4975304;28;20220;-81
2024/01/02 02:38:35;;;;;;;0.70;0.60;;;;;;;10.16;nan;98744.06;4974624;28;20449;-81
2024/01/02 02:41:00;;;;;;;0.80;0.50;;;;;;;10.14;nan;98749.41;4978112;28;20209;-81
2024/01/02 02:43:25;;;;;;;0.70;0.50;;;;;;;10.17;nan;98743.09;4975040;28;20552;-81
2024/01/02 02:45:51;;;;;;;1.53;0.50;;;;;;;10.18;nan;98747.41;4977766;28;20196;-81
2024/01/02 02:48:17;;;;;;;0.67;0.50;;;;;;;10.21;nan;98739.31;4978047;28;20232;-81
2024/01/02 02:50:42;;;;;;;0.60;0.50;;;;;;;10.20;nan;98735.81;4980271;28;20237;-82
2024/01/02 02:53:08;;;;;;;0.60;0.50;;;;;;;10.23;nan;98742.63;4980503;28;20203;-81
2024/01/02 02:55:33;;;;;;;0.70;0.60;;;;;;;10.22;nan;98733.09;4983411;28;20197;-82
2024/01/02 02:57:59;;;;;;;0.60;0.50;;;;;;;10.20;nan;98730.56;4980023;28;20213;-80
2024/01/02 03:00:24;;;;;;;2.50;0.70;;;;;;;10.20;nan;98724.50;4980504;28;20219;-81
2024/01/02 03:02:52;;;;;;;0.70;0.50;;;;;;;10.20;nan;98725.31;4976939;28;20247;-80
2024/01/02 03:05:18;;;;;;;0.63;0.50;;;;;;;10.20;nan;98738.44;4979147;28;20558;-83
2024/01/02 03:07:43;;;;;;;1.60;0.70;;;;;;;10.22;nan;98725.22;4982313;28;20618;-81
2024/01/02 03:10:11;;;;;;;0.60;0.50;;;;;;;10.21;nan;98715.69;4979299;28;20232;-82
2024/01/02 03:12:37;;;;;;;0.80;0.60;;;;;;;10.19;nan;98728.91;4980043;28;20499;-81
2024/01/02 03:15:03;;;;;;;1.00;0.77;;;;;;;10.18;nan;98719.38;4982300;28;20209;-81
2024/01/02 03:17:28;;;;;;;0.80;0.60;;;;;;;10.15;nan;98729.25;4980705;28;20739;-80
2024/01/02 03:19:54;;;;;;;0.77;0.60;;;;;;;10.16;nan;98704.69;4979986;28;20464;-80
2024/01/02 03:22:19;;;;;;;0.70;0.60;;;;;;;10.18;nan;98710.69;4978150;28;20227;-81
2024/01/02 03:24:44;;;;;;;0.60;0.57;;;;;;;10.11;nan;98706.84;4979450;28;20266;-80
2024/01/02 03:27:10;;;;;;;0.80;0.50;;;;;;;10.11;nan;98702.41;4979458;28;20279;-81
2024/01/02 03:29:35;;;;;;;3.60;0.60;;;;;;;10.11;nan;98691.09;4977662;28;20214;-81
2024/01/02 03:32:01;;;;;;;0.60;0.50;;;;;;;10.09;nan;98685.13;4983801;28;20220;-80
2024/01/02 03:34:26;;;;;;;0.73;0.50;;;;;;;10.05;nan;98678.44;4986069;28;20213;-80
2024/01/02 03:36:52;;;;;;;0.60;0.50;;;;;;;10.01;nan;98669.97;4983179;28;21296;-81
2024/01/02 03:39:17;;;;;;;0.70;0.60;;;;;;;10.05;nan;98662.72;4989700;28;20432;-81
2024/01/02 03:41:42;;;;;;;0.80;0.60;;;;;;;10.01;nan;98664.72;4988972;28;20492;-79
2024/01/02 03:44:08;;;;;;;0.70;0.70;;;;;;;9.97;nan;98668.53;4990586;28;20216;-80
2024/01/02 03:46:33;;;;;;;2.30;0.67;;;;;;;9.95;nan;98673.06;4991146;28;20269;-81
2024/01/02 03:48:58;;;;;;;1.33;0.50;;;;;;;9.92;nan;98671.50;4989521;28;20225;-80
2024/01/02 03:51:24;;;;;;;0.60;0.50;;;;;;;9.89;nan;98653.38;4992544;28;20225;-78
2024/01/02 03:53:50;;;;;;;1.67;0.67;;;;;;;9.86;nan;98666.72;4991233;28;20236;-80
2024/01/02 03:56:16;;;;;;;0.80;0.70;;;;;;;9.83;nan;98647.75;4992028;28;20197;-81
2024/01/02 03:58:42;;;;;;;0.60;0.50;;;;;;;9.80;nan;98656.69;4992173;28;20193;-79
2024/01/02 04:01:07;;;;;;;0.60;0.60;;;;;;;9.80;nan;98645.34;4993904;28;20304;-80
2024/01/02 04:03:33;;;;;;;0.70;0.60;;;;;;;9.79;nan;98633.22;4992398;28;20220;-80
2024/01/02 04:05:58;;;;;;;0.60;0.60;;;;;;;9.79;nan;98635.84;4990553;28;20950;-80
2024/01/02 04:08:24;;;;;;;0.60;0.53;;;;;;;9.79;nan;98631.41;4984683;28;20551;-80
2024/01/02 04:10:49;;;;;;;0.60;0.60;;;;;;;9.82;nan;98627.72;4971208;28;20213;-80
2024/01/02 04:13:14;;;;;;;0.80;0.80;;;;;;;9.81;nan;98624.28;4973288;28;20209;-80
2024/01/02 04:15:40;;;;;;;0.60;0.50;;;;;;;9.84;nan;98618.78;4976491;28;20768;-81
2024/01/02 04:18:05;;;;;;;1.00;0.60;;;;;;;9.82;nan;98609.38;4977341;28;20205;-80
2024/01/02 04:20:31;;;;;;;0.60;0.60;;;;;;;9.82;nan;98610.19;4973085;28;20213;-82
2024/01/02 04:22:57;;;;;;;1.43;0.60;;;;;;;9.85;nan;98602.09;4975916;28;20531;-82
2024/01/02 04:25:26;;;;;;;0.60;0.50;;;;;;;9.87;nan;98591.50;4976754;28;20538;-82
2024/01/02 04:27:55;;;;;;;0.80;0.55;;;;;;;9.86;nan;98589.84;4977852;28;21056;-81
2024/01/02 04:30:22;;;;;;;0.60;0.50;;;;;;;9.86;nan;98588.03;4973839;28;20229;-80
2024/01/02 04:32:48;;;;;;;0.70;0.60;;;;;;;9.90;nan;98589.47;4976865;28;20216;-78
2024/01/02 04:35:13;;;;;;;0.60;0.60;;;;;;;9.93;nan;98583.16;4977118;28;20209;-82
2024/01/02 04:37:38;;;;;;;1.10;0.60;;;;;;;9.96;nan;98581.13;4971743;28;20444;-82
2024/01/02 04:40:05;;;;;;;0.60;0.50;;;;;;;9.98;nan;98589.69;4974552;28;20873;-82
2024/01/02 04:42:35;;;;;;;0.60;0.50;;;;;;;10.01;nan;98585.19;4974655;28;20201;-80
2024/01/02 04:45:04;;;;;;;0.65;0.50;;;;;;;10.04;nan;98588.38;4974448;28;20558;-83
2024/01/02 04:47:30;;;;;;;0.60;0.50;;;;;;;10.04;nan;98577.06;4974028;28;20212;-82
2024/01/02 04:49:55;;;;;;;0.63;0.53;;;;;;;10.10;nan;98587.06;4974400;28;20686;-82
2024/01/02 04:52:21;;;;;;;0.60;0.57;;;;;;;10.11;nan;98565.97;4973157;28;20249;-81
2024/01/02 04:54:48;;;;;;;1.60;0.60;;;;;;;10.12;nan;98570.25;4975552;28;20212;-82
2024/01/02 04:57:13;;;;;;;0.60;0.50;;;;;;;10.15;nan;98566.56;4973854;28;20817;-82
2024/01/02 04:59:39;;;;;;;0.60;0.50;;;;;;;10.18;nan;98568.97;4972918;28;20200;-82
2024/01/02 05:02:05;;;;;;;0.60;0.50;;;;;;;10.19;nan;98560.97;4973100;28;21283;-81
2024/01/02 05:04:30;;;;;;;0.80;0.80;;;;;;;10.24;nan;98557.16;4974627;28;20213;-79
2024/01/02 05:06:55;;;;;;;1.20;0.60;;;;;;;10.25;nan;98558.81;4969336;28;20212;-81
2024/01/02 05:09:21;;;;;;;0.70;0.50;;;;;;;10.27;nan;98555.16;4973160;28;20447;-81
2024/01/02 05:11:48;;;;;;;0.70;0.50;;;;;;;10.29;nan;98539.25;4972570;28;20651;-81
2024/01/02 05:14:17;;;;;;;0.60;0.60;;;;;;;10.31;nan;98532.09;4974641;28;20289;-82
2024/01/02 05:16:43;;;;;;;0.60;0.50;;;;;;;10.33;nan;98538.91;4975474;28;21184;-81
2024/01/02 05:19:08;;;;;;;0.60;0.50;;;;;;;10.36;nan;98543.91;4975581;28;20220;-81
2024/01/02 05:21:33;;;;;;;0.60;0.50;;;;;;;10.37;nan;98545.59;4975376;28;20230;-83
2024/01/02 05:23:59;;;;;;;0.80;0.50;;;;;;;10.41;nan;98547.00;4977281;28;20230;-82
2024/01/02 05:26:24;;;;;;;0.70;0.60;;;;;;;10.41;nan;98544.38;4973425;28;20747;-82
2024/01/02 05:28:50;;;;;;;0.60;0.50;;;;;;;10.49;nan;98548.19;4969385;28;21629;-82
2024/01/02 05:31:15;;;;;;;0.80;0.50;;;;;;;10.47;nan;98535.16;4969687;28;20245;-81
2024/01/02 05:33:40;;;;;;;0.70;0.50;;;;;;;10.50;nan;98547.22;4966281;28;20274;-84
2024/01/02 05:36:06;;;;;;;0.73;0.60;;;;;;;10.51;nan;98546.28;4963803;28;20209;-82
2024/01/02 05:38:31;;;;;;;1.60;0.70;;;;;;;10.54;nan;98544.22;4968175;28;20622;-83
2024/01/02 05:40:57;;;;;;;0.60;0.50;;;;;;;10.55;nan;98527.50;4966794;28;20221;-82
2024/01/02 05:43:22;;;;;;;0.70;0.50;;;;;;;10.58;nan;98534.31;4969635;28;20206;-83
2024/01/02 05:45:50;;;;;;;1.40;0.53;;;;;;;10.55;nan;98539.81;4971508;28;20212;-82
2024/01/02 05:48:16;;;;;;;0.60;0.50;;;;;;;10.58;nan;98535.13;4969610;28;20205;-81
2024/01/02 05:50:41;;;;;;;0.60;0.50;;;;;;;10.66;nan;98544.19;4971703;28;20256;-80
2024/01/02 05:53:09;;;;;;;0.60;0.40;;;;;;;10.67;nan;98528.31;4972835;28;20865;-80
2024/01/02 05:55:35;;;;;;;0.68;0.57;;;;;;;10.66;nan;98526.63;4972195;28;20209;-80
2024/01/02 05:58:00;;;;;;;0.70;0.60;;;;;;;10.72;nan;98520.03;4973575;28;20213;-80
2024/01/02 06:00:26;;;;;;;0.60;0.50;;;;;;;10.73;nan;98533.06;4972193;28;20464;-80
2024/01/02 06:02:52;;;;;;;0.60;0.50;;;;;;;10.76;nan;98522.31;4987977;28;20224;-80
2024/01/02 06:05:18;;;;;;;0.85;0.50;;;;;;;10.78;nan;98514.31;4971087;28;20209;-81
2024/01/02 06:07:44;;;;;;;0.70;0.60;;;;;;;10.79;nan;98511.53;4963069;28;20443;-80
2024/01/02 06:10:09;;;;;;;2.07;0.50;;;;;;;10.79;nan;98527.31;4966522;28;21132;-80
2024/01/02 06:12:35;;;;;;;0.70;0.50;;;;;;;10.88;nan;98524.88;4970016;28;20280;-82
2024/01/02 06:15:00;;;;;;;0.60;0.50;;;;;;;10.87;nan;98521.44;4971329;28;20218;-82
2024/01/02 06:17:25;;;;;;;0.60;0.50;;;;;;;10.85;nan;98520.72;4968711;28;20245;-81
2024/01/02 06:19:51;;;;;;;0.80;0.60;;;;;;;10.89;nan;98510.81;4969732;28;20282;-82
2024/01/02 06:22:16;;;;;;;0.60;0.50;;;;;;;10.90;nan;98518.53;4968312;28;20225;-81
2024/01/02 06:24:42;;;;;;;1.70;0.60;;;;;;;10.87;nan;98518.81;4971475;28;20225;-85
2024/01/02 06:27:08;;;;;;;0.60;0.50;;;;;;;10.95;nan;98518.16;4972632;28;20247;-86
2024/01/02 06:29:34;;;;;;;0.60;0.50;;;;;;;10.95;nan;98521.63;4971905;28;20237;-85
2024/01/02 06:31:59;;;;;;;0.90;0.70;;;;;;;10.95;nan;98519.00;4970746;28;20222;-86
2024/01/02 06:34:24;;;;;;;0.70;0.60;;;;;;;10.98;nan;98520.53;4970133;28;20857;-86
2024/01/02 06:36:50;;;;;;;0.60;0.50;;;;;;;10.91;nan;98508.88;4967614;28;20222;-85
2024/01/02 06:39:15;;;;;;;0.93;0.63;;;;;;;10.96;nan;98523.28;4970354;28;20435;-86
2024/01/02 06:41:42;;;;;;;2.20;0.90;;;;;;;10.98;nan;98500.34;4970587;28;20231;-85
2024/01/02 06:44:08;;;;;;;0.80;0.50;;;;;;;11.02;nan;98507.03;4971513;28;20916;-86
2024/01/02 06:46:33;;;;;;;0.70;0.57;;;;;;;11.02;nan;98506.22;4968424;28;20268;-85
2024/01/02 06:48:59;;;;;;;0.70;0.60;;;;;;;11.00;nan;98492.34;4971847;28;20252;-86
2024/01/02 06:51:26;;;;;;;0.80;0.60;;;;;;;10.99;nan;98501.19;4970545;28;20237;-85
2024/01/02 06:53:52;;;;;;;0.60;0.50;;;;;;;11.02;nan;98500.94;4971311;28;20215;-86
2024/01/02 06:56:18;;;;;;;0.90;0.50;;;;;;;11.05;nan;98526.97;4973189;28;20217;-86
2024/01/02 06:58:44;;;;;;;0.90;0.53;;;;;;;11.05;nan;98517.28;4972401;28;20204;-85
2024/01/02 07:01:13;;;;;;;0.70;0.50;;;;;;;11.06;nan;98518.13;4971764;28;20352;-85
2024/01/02 07:03:39;;;;;;;0.80;0.50;;;;;;;11.08;nan;98506.50;4972950;28;20518;-85
2024/01/02 07:06:04;;;;;;;0.60;0.50;;;;;;;11.08;nan;98496.00;4972349;28;20933;-86
2024/01/02 07:08:30;;;;;;;0.60;0.50;;;;;;;11.11;nan;98501.97;4975210;28;20205;-85
2024/01/02 07:10:55;;;;;;;0.70;0.60;;;;;;;11.11;nan;98510.69;4973389;28;20227;-85
2024/01/02 07:13:20;;;;;;;0.60;0.60;;;;;;;11.11;nan;98499.34;4974924;28;20197;-85
2024/01/02 07:15:46;;;;;;;0.70;0.60;;;;;;;11.10;nan;98487.16;4980464;28;20193;-86
2024/01/02 07:18:12;;;;;;;0.60;0.50;;;;;;;11.11;nan;98496.72;4990062;28;20193;-85
2024/01/02 07:20:37;;;;;;;0.60;0.50;;;;;;;11.08;nan;98498.63;4985946;28;20790;-85
2024/01/02 07:23:03;;;;;;;0.70;0.50;;;;;;;11.13;nan;98497.44;4976600;28;20501;-86
2024/01/02 07:25:28;;;;;;;0.60;0.60;;;;;;;11.15;nan;98496.34;4976731;28;20394;-85
2024/01/02 07:27:54;;;;;;;1.03;0.50;;;;;;;11.15;nan;98492.84;4976387;28;20205;-84
2024/01/02 07:30:20;;;;;;;1.27;0.47;;;;;;;11.14;nan;98507.78;4974305;28;20320;-84
2024/01/02 07:32:45;;;;;;;0.60;0.50;;;;;;;11.14;nan;98510.44;4971829;28;20506;-84
2024/01/02 07:35:10;;;;;;;0.73;0.50;;;;;;;11.15;nan;98504.22;4970174;28;20510;-86
2024/01/02 07:37:36;;;;;;;0.60;0.40;;;;;;;11.14;nan;98499.09;4970301;28;20511;-85
2024/01/02 07:40:01;;;;;;;0.97;0.50;;;;;;;11.14;nan;98497.28;4971873;28;20804;-85
2024/01/02 07:42:27;;;;;;;2.77;1.27;;;;;;;11.18;nan;98488.19;4965263;28;20211;-85
2024/01/02 07:44:52;;;;;;;0.70;0.70;;;;;;;11.14;nan;98505.16;4962361;28;20227;-84
2024/01/02 07:47:18;;;;;;;1.60;1.00;;;;;;;11.20;nan;98511.69;4964560;28;20193;-85
2024/01/02 07:49:43;;;;;;;1.13;0.83;;;;;;;11.16;nan;98511.13;4966972;28;20981;-86
2024/01/02 07:52:09;;;;;;;1.13;1.00;;;;;;;11.15;nan;98501.59;4964565;28;20225;-86
2024/01/02 07:54:38;;;;;;;1.00;0.90;;;;;;;11.19;nan;98502.16;4964768;28;20229;-86
2024/01/02 07:57:05;;;;;;;4.40;2.28;;;;;;;11.20;nan;98504.66;4962547;28;20200;-86
2024/01/02 07:59:30;;;;;;;2.55;1.75;;;;;;;11.22;nan;98496.66;4964408;28;20204;-86
2024/01/02 08:01:55;;;;;;;2.17;1.57;;;;;;;11.18;nan;98505.72;4964638;28;20749;-86
2024/01/02 08:04:21;;;;;;;1.70;1.10;;;;;;;11.20;nan;98493.31;4964598;28;20206;-86
2024/01/02 08:06:46;;;;;;;2.33;1.10;;;;;;;11.20;nan;98499.38;4960322;28;20202;-86
2024/01/02 08:09:12;;;;;;;1.90;1.20;;;;;;;11.23;nan;98504.41;4962525;28;20972;-84
2024/01/02 08:11:39;;;;;;;1.42;1.23;;;;;;;11.22;nan;98494.84;4964855;28;20233;-86
2024/01/02 08:14:04;;;;;;;2.10;0.90;;;;;;;11.23;nan;98498.31;4964052;28;20222;-85
2024/01/02 08:16:30;;;;;;;1.57;1.33;;;;;;;11.25;nan;98505.09;4962403;28;20203;-84
2024/01/02 08:18:56;;;;;;;1.10;0.60;;;;;;;11.24;nan;98492.94;4964766;28;20232;-85
2024/01/02 08:21:21;;;;;;;0.70;0.60;;;;;;;11.19;nan;98487.22;4965023;28;21022;-84
2024/01/02 08:23:47;;;;;;;5.30;3.00;;;;;;;11.21;nan;98485.31;4965425;28;20212;-86
2024/01/02 08:26:13;;;;;;;0.60;0.50;;;;;;;11.29;nan;98488.13;4964154;28;20288;-85
2024/01/02 08:28:39;;;;;;;0.70;0.60;;;;;;;11.35;nan;98491.19;4965656;28;20221;-86
2024/01/02 08:31:04;;;;;;;0.60;0.53;;;;;;;11.33;nan;98493.13;4985220;28;20475;-86
2024/01/02 08:33:30;;;;;;;1.07;0.63;;;;;;;11.35;nan;98485.94;4965247;28;20224;-85
2024/01/02 08:35:55;;;;;;;0.60;0.50;;;;;;;11.33;nan;98488.69;4969313;28;20716;-85
2024/01/02 08:38:21;;;;;;;0.63;0.50;;;;;;;11.38;nan;98485.66;4962975;28;20515;-85
2024/01/02 08:40:47;;;;;;;0.60;0.50;;;;;;;11.39;nan;98482.06;4966071;28;20244;-85
2024/01/02 08:43:13;;;;;;;0.60;0.50;;;;;;;11.41;nan;98482.78;4966086;28;20461;-85
2024/01/02 08:45:38;;;;;;;0.60;0.40;;;;;;;11.39;nan;98487.31;4964903;28;20210;-86
2024/01/02 08:48:04;;;;;;;1.53;0.60;;;;;;;11.44;nan;98482.50;4963549;28;20220;-85
2024/01/02 08:50:30;;;;;;;1.63;0.70;;;;;;;11.41;nan;98483.59;4965455;28;20225;-85
2024/01/02 08:52:55;;;;;;;0.70;0.60;;;;;;;11.44;nan;98493.03;4966038;28;20656;-85
2024/01/02 08:55:20;;;;;;;0.60;0.60;;;;;;;11.44;nan;98493.84;4965223;28;20197;-85
2024/01/02 08:57:46;;;;;;;0.60;0.40;;;;;;;11.46;nan;98505.09;4965729;28;20505;-86
2024/01/02 09:00:14;;;;;;;0.70;0.60;;;;;;;11.47;nan;98496.22;4964964;28;20706;-85
2024/01/02 09:02:41;;;;;;;1.45;0.70;;;;;;;11.47;nan;98500.66;4964831;28;20269;-85
2024/01/02 09:05:07;;;;;;;1.00;0.60;;;;;;;11.48;nan;98505.78;4966231;28;20211;-85
2024/01/02 09:07:35;;;;;;;3.30;0.90;;;;;;;11.55;nan;98506.09;4965517;28;20455;-85
2024/01/02 09:10:00;;;;;;;1.05;0.95;;;;;;;11.55;nan;98507.91;4979547;28;20220;-86
2024/01/02 09:12:26;;;;;;;2.10;1.07;;;;;;;11.53;nan;98502.78;4965046;28;20208;-85
2024/01/02 09:14:54;;;;;;;0.97;0.70;;;;;;;11.50;nan;98510.91;4966356;28;20204;-84
2024/01/02 09:17:20;;;;;;;2.60;1.50;;;;;;;11.57;nan;98511.22;4967572;28;20953;-85
2024/01/02 09:19:46;;;;;;;0.93;0.60;;;;;;;11.53;nan;98508.03;4965249;28;20226;-85
2024/01/02 09:22:11;;;;;;;1.20;0.80;;;;;;;11.54;nan;98514.13;4965336;28;21417;-85
2024/01/02 09:24:39;;;;;;;2.97;1.10;;;;;;;11.49;nan;98527.66;4965158;28;20287;-85
2024/01/02 09:27:06;;;;;;;2.05;1.30;;;;;;;11.51;nan;98510.78;4965034;28;20213;-86
2024/01/02 09:29:32;;;;;;;1.00;0.93;;;;;;;11.55;nan;98515.78;4962605;28;20757;-82
2024/01/02 09:31:57;;;;;;;1.50;1.20;;;;;;;11.56;nan;98506.91;4970876;28;20315;-81
2024/01/02 09:34:23;;;;;;;2.00;1.10;;;;;;;11.59;nan;98506.69;4967449;28;20682;-82
2024/01/02 09:36:51;;;;;;;1.27;0.80;;;;;;;11.56;nan;98515.66;4970562;28;20310;-82
2024/01/02 09:39:16;;;;;;;1.33;0.80;;;;;;;11.57;nan;98511.22;4970114;28;20449;-82
2024/01/02 09:42:09;;;;;;;2.40;1.33;;;;;;;11.60;nan;98514.44;4965753;28;20217;-81
2024/01/02 09:44:40;;;;;;;2.15;1.20;;;;;;;11.59;nan;98515.41;4968039;28;20212;-81
2024/01/02 09:47:28;;;;;;;3.47;1.95;;;;;;;11.60;nan;98503.91;4965159;28;20308;-83
2024/01/02 09:49:56;;;;;;;2.85;1.67;;;;;;;11.59;nan;98502.25;4966720;28;20218;-82
2024/01/02 09:52:42;;;;;;;1.08;0.80;;;;;;;11.59;nan;98499.63;4965968;28;20223;-82
2024/01/02 09:55:20;;;;;;;0.60;0.50;;;;;;;11.59;nan;98498.78;4963206;28;20575;-81
2024/01/02 09:57:59;;;;;;;0.95;0.60;;;;;;;11.63;nan;98505.44;4967309;28;20210;-82
2024/01/02 10:00:50;;;;;;;0.80;0.70;;;;;;;11.65;nan;98493.81;4967174;28;20210;-81
2024/01/02 10:03:21;;;;;;;0.70;0.50;;;;;;;11.64;nan;98486.91;4964540;28;20211;-82
2024/01/02 10:06:28;;;;;;;0.65;0.52;;;;;;;11.64;nan;98500.06;4966238;28;20220;-81
2024/01/02 10:09:11;;;;;;;0.70;0.50;;;;;;;11.62;nan;98509.06;4956816;28;20979;-81
2024/01/02 10:11:49;;;;;;;0.80;0.60;;;;;;;11.66;nan;98497.28;4971662;28;20711;-81
2024/01/02 10:14:17;;;;;;;0.70;0.60;;;;;;;11.67;nan;98494.53;4970469;28;20462;-81
2024/01/02 10:16:58;;;;;;;0.70;0.70;;;;;;;11.69;nan;98482.09;4965784;28;20211;-82
2024/01/02 10:19:23;;;;;;;0.60;0.60;;;;;;;11.70;nan;98488.19;4967830;28;20219;-81
2024/01/02 10:22:11;;;;;;;0.60;0.50;;;;;;;11.66;nan;98484.97;4968461;28;20235;-81
2024/01/02 10:25:13;;;;;;;0.68;0.60;;;;;;;11.69;nan;98470.72;4967243;28;20935;-81
2024/01/02 10:27:53;;;;;;;1.10;1.00;;;;;;;11.67;nan;98459.50;4965208;28;20207;-85
2024/01/02 10:30:21;;;;;;;0.88;0.60;;;;;;;11.72;nan;98459.94;4966851;28;20225;-86
2024/01/02 10:32:55;;;;;;;1.63;0.63;;;;;;;11.71;nan;98455.63;4968370;28;20308;-84
2024/01/02 10:35:32;;;;;;;0.70;0.60;;;;;;;11.75;nan;98472.84;4968452;28;20292;-87
2024/01/02 10:38:18;;;;;;;0.70;0.60;;;;;;;11.81;nan;98434.63;4967399;28;20869;-86
2024/01/02 10:40:55;;;;;;;1.60;0.70;;;;;;;11.78;nan;98442.81;4947149;28;20256;-86
2024/01/02 10:43:27;;;;;;;4.63;0.70;;;;;;;11.82;nan;98438.91;4971327;28;20905;-85
2024/01/02 10:46:10;;;;;;;0.80;0.55;;;;;;;11.79;nan;98428.66;4968926;28;20791;-86
2024/01/02 10:49:21;;;;;;;0.60;0.50;;;;;;;11.79;nan;98428.66;4968589;28;21031;-86
2024/01/02 10:52:07;;;;;;;0.80;0.70;;;;;;;11.81;nan;98432.00;4969534;28;20902;-87
2024/01/02 10:55:05;;;;;;;0.70;0.50;;;;;;;11.83;nan;98407.22;4969194;28;20221;-86
2024/01/02 10:57:52;;;;;;;0.75;0.57;;;;;;;11.85;nan;98405.28;4948365;28;20220;-85
2024/01/02 11:00:26;;;;;;;0.63;0.52;;;;;;;11.93;nan;98399.38;4969169;28;20222;-87
2024/01/02 11:02:59;;;;;;;0.70;0.50;;;;;;;11.88;nan;98399.78;4968526;28;20283;-85
2024/01/02 11:05:39;;;;;;;2.35;0.70;;;;;;;11.95;nan;98385.09;4965883;28;20222;-86
2024/01/02 11:08:21;;;;;;;0.70;0.70;;;;;;;11.97;nan;98387.63;4969564;28;20193;-86
2024/01/02 11:10:57;;;;;;;0.70;0.60;;;;;;;11.98;nan;98380.53;4968599;28;20207;-83
2024/01/02 11:13:26;;;;;;;0.60;0.50;;;;;;;11.99;nan;98359.38;4962875;28;20655;-82
2024/01/02 11:16:09;;;;;;;0.60;0.50;;;;;;;12.01;nan;98373.19;4965279;28;20206;-82
2024/01/02 11:18:37;;;;;;;1.20;1.10;;;;;;;12.02;nan;98374.88;4966145;28;20204;-82
2024/01/02 11:21:13;;;;;;;0.98;0.60;;;;;;;12.07;nan;98362.16;4964423;28;20759;-82
2024/01/02 11:23:46;;;;;;;1.15;0.88;;;;;;;12.06;nan;98360.47;4965768;28;20236;-83
2024/01/02 11:26:20;;;;;;;0.90;0.60;;;;;;;12.05;nan;98358.00;4965546;28;21424;-83
2024/01/02 11:28:49;;;;;;;0.82;0.82;;;;;;;12.06;nan;98354.38;4966737;28;20221;-83
2024/01/02 11:31:15;;;;;;;0.60;0.50;;;;;;;12.06;nan;98355.19;4962365;28;20814;-83
2024/01/02 11:34:36;;;;;;;0.80;0.67;;;;;;;12.08;nan;98357.72;4965493;28;20231;-84
2024/01/02 11:37:13;;;;;;;0.90;0.80;;;;;;;12.08;nan;98347.19;4963230;28;21354;-83
2024/01/02 11:39:56;;;;;;;1.45;0.75;;;;;;;12.06;nan;98346.47;4964720;28;20304;-82
2024/01/02 11:42:49;;;;;;;0.60;0.57;;;;;;;12.09;nan;98348.81;4968501;28;20208;-83
2024/01/02 11:45:22;;;;;;;0.90;0.63;;;;;;;12.11;nan;98339.00;4965941;28;20201;-83
2024/01/02 11:47:50;;;;;;;0.88;0.73;;;;;;;12.10;nan;98330.28;4965438;28;20316;-82
2024/01/02 11:50:16;;;;;;;1.40;1.30;;;;;;;12.11;nan;98325.84;4963878;28;20448;-81
2024/01/02 11:53:02;;;;;;;0.70;0.60;;;;;;;12.12;nan;98330.13;4966858;28;20268;-83
2024/01/02 11:55:51;;;;;;;0.80;0.60;;;;;;;12.12;nan;98344.16;4970657;28;20204;-82
2024/01/02 11:58:39;;;;;;;0.70;0.65;;;;;;;12.16;nan;98319.19;4967975;28;20232;-83
2024/01/02 12:01:29;;;;;;;0.80;0.70;;;;;;;12.15;nan;98321.94;4966523;28;20307;-83